Alma, Alabama
Current Conditions -  °F | °C
As of 10:53 PM on Friday 24 Oct 2014 (Local Time) from KGZH Reporting Station
Clear Clear  
Wind Chill: 10°   Ceiling: Unl
Heat Index: 10°   Visibility: 10mi
Dew Point:   Wind: 0mph
Humidity: 86%   Direction: NA
Pressure: 30.07"   Gusts: NA
Location:  31.46°N, 87.75°W
Report Text: KGZH 250353Z AUTO 00000KT 10SM CLR 10/08 A3007 RMK AO2 SLP181 T01000078
Loading
Personal Weather Stations






























Interactive Weather Map
Tropical Storm Tracking
New forecast layout! Learn more

10-Day Weather Forecast

Advertisements
Track Severe Weather on mobile